Terminal Aerodrome Forecast
Issued by NWS Tuscon, AZ

Home | Current Version | Previous Version | Text Only | Print | Product List | Glossary On
Versions: 1 2 3 4 5 6 7 8 9 10 11 12
000
FTUS45 KTWC 081720
TAFTUS
TAF
KTUS 081720Z 0818/0918 VRB04KT P6SM SKC
     FM082100 36007KT P6SM FEW100
     FM090300 VRB03KT P6SM SKC
     FM090800 13010KT P6SM FEW250
     FM091700 10007KT P6SM SCT250=

USA.gov is the U.S. government's official web portal to all federal, state and local government web resources and services.